sensor_id;sensor_type;location;lat;lon;timestamp;temperature;humidity
12568;DHT22;6349;50.904;6.136;2024-01-30T00:00:55;10.20;99.90
12568;DHT22;6349;50.904;6.136;2024-01-30T00:02:56;10.20;99.90
12568;DHT22;6349;50.904;6.136;2024-01-30T00:04:56;10.20;99.90
12568;DHT22;6349;50.904;6.136;2024-01-30T00:06:57;10.20;99.90
12568;DHT22;6349;50.904;6.136;2024-01-30T00:08:58;10.20;99.90
12568;DHT22;6349;50.904;6.136;2024-01-30T00:10:58;10.20;99.90
12568;DHT22;6349;50.904;6.136;2024-01-30T00:12:59;10.20;99.90
12568;DHT22;6349;50.904;6.136;2024-01-30T00:14:59;10.20;99.90
12568;DHT22;6349;50.904;6.136;2024-01-30T00:17:00;10.20;99.90
12568;DHT22;6349;50.904;6.136;2024-01-30T00:19:00;10.20;99.90
12568;DHT22;6349;50.904;6.136;2024-01-30T00:21:02;10.20;99.90
12568;DHT22;6349;50.904;6.136;2024-01-30T00:23:03;10.20;99.90
12568;DHT22;6349;50.904;6.136;2024-01-30T00:25:05;10.20;99.90
12568;DHT22;6349;50.904;6.136;2024-01-30T00:27:05;10.20;99.90
12568;DHT22;6349;50.904;6.136;2024-01-30T00:29:06;10.20;99.90
12568;DHT22;6349;50.904;6.136;2024-01-30T00:31:07;10.20;99.90
12568;DHT22;6349;50.904;6.136;2024-01-30T00:33:09;10.20;99.90
12568;DHT22;6349;50.904;6.136;2024-01-30T00:35:09;10.20;99.90
12568;DHT22;6349;50.904;6.136;2024-01-30T00:37:11;10.20;99.90
12568;DHT22;6349;50.904;6.136;2024-01-30T00:39:11;10.20;99.90
12568;DHT22;6349;50.904;6.136;2024-01-30T00:41:12;10.20;99.90
12568;DHT22;6349;50.904;6.136;2024-01-30T00:43:13;10.20;99.90
12568;DHT22;6349;50.904;6.136;2024-01-30T00:45:14;10.20;99.90
12568;DHT22;6349;50.904;6.136;2024-01-30T00:47:15;10.20;99.90
12568;DHT22;6349;50.904;6.136;2024-01-30T00:49:16;10.30;99.90
12568;DHT22;6349;50.904;6.136;2024-01-30T00:51:16;10.20;99.90
12568;DHT22;6349;50.904;6.136;2024-01-30T00:53:17;10.20;99.90
12568;DHT22;6349;50.904;6.136;2024-01-30T00:55:17;10.20;99.90
12568;DHT22;6349;50.904;6.136;2024-01-30T00:57:18;10.20;99.90
12568;DHT22;6349;50.904;6.136;2024-01-30T00:59:18;10.30;99.90
12568;DHT22;6349;50.904;6.136;2024-01-30T01:01:19;10.30;99.90
12568;DHT22;6349;50.904;6.136;2024-01-30T01:03:20;10.20;99.90
12568;DHT22;6349;50.904;6.136;2024-01-30T01:05:21;10.20;99.90
12568;DHT22;6349;50.904;6.136;2024-01-30T01:07:21;10.30;99.90
12568;DHT22;6349;50.904;6.136;2024-01-30T01:09:22;10.20;99.90
12568;DHT22;6349;50.904;6.136;2024-01-30T01:11:22;10.20;99.90
12568;DHT22;6349;50.904;6.136;2024-01-30T01:13:23;10.20;99.90
12568;DHT22;6349;50.904;6.136;2024-01-30T01:15:23;10.20;99.90
12568;DHT22;6349;50.904;6.136;2024-01-30T01:17:24;10.10;99.90
12568;DHT22;6349;50.904;6.136;2024-01-30T01:19:24;10.20;99.90
12568;DHT22;6349;50.904;6.136;2024-01-30T01:21:25;10.20;99.90
12568;DHT22;6349;50.904;6.136;2024-01-30T01:23:26;10.20;99.90
12568;DHT22;6349;50.904;6.136;2024-01-30T01:25:26;10.20;99.90
12568;DHT22;6349;50.904;6.136;2024-01-30T01:27:27;10.20;99.90
12568;DHT22;6349;50.904;6.136;2024-01-30T01:29:28;10.20;99.90
12568;DHT22;6349;50.904;6.136;2024-01-30T01:31:31;10.30;99.90
12568;DHT22;6349;50.904;6.136;2024-01-30T01:33:32;10.30;99.90
12568;DHT22;6349;50.904;6.136;2024-01-30T01:35:33;10.40;99.90
12568;DHT22;6349;50.904;6.136;2024-01-30T01:37:34;10.40;99.90
12568;DHT22;6349;50.904;6.136;2024-01-30T01:39:35;10.40;99.90
12568;DHT22;6349;50.904;6.136;2024-01-30T01:41:35;10.40;99.90
12568;DHT22;6349;50.904;6.136;2024-01-30T01:43:36;10.40;99.90
12568;DHT22;6349;50.904;6.136;2024-01-30T01:45:38;10.40;99.90
12568;DHT22;6349;50.904;6.136;2024-01-30T01:47:38;10.40;99.90
12568;DHT22;6349;50.904;6.136;2024-01-30T01:49:39;10.40;99.90
12568;DHT22;6349;50.904;6.136;2024-01-30T01:51:41;10.50;99.90
12568;DHT22;6349;50.904;6.136;2024-01-30T01:53:42;10.40;99.90
12568;DHT22;6349;50.904;6.136;2024-01-30T01:55:43;10.40;99.90
12568;DHT22;6349;50.904;6.136;2024-01-30T01:57:44;10.40;99.90
12568;DHT22;6349;50.904;6.136;2024-01-30T01:59:45;10.40;99.90
12568;DHT22;6349;50.904;6.136;2024-01-30T02:01:46;10.40;99.90
12568;DHT22;6349;50.904;6.136;2024-01-30T02:03:49;10.40;99.90
12568;DHT22;6349;50.904;6.136;2024-01-30T02:05:53;10.40;99.90
12568;DHT22;6349;50.904;6.136;2024-01-30T02:07:54;10.40;99.90
12568;DHT22;6349;50.904;6.136;2024-01-30T02:09:55;10.40;99.90
12568;DHT22;6349;50.904;6.136;2024-01-30T02:11:56;10.40;99.90
12568;DHT22;6349;50.904;6.136;2024-01-30T02:13:56;10.50;99.90
12568;DHT22;6349;50.904;6.136;2024-01-30T02:15:57;10.60;99.90
12568;DHT22;6349;50.904;6.136;2024-01-30T02:17:57;10.60;99.90
12568;DHT22;6349;50.904;6.136;2024-01-30T02:19:58;10.60;99.90
12568;DHT22;6349;50.904;6.136;2024-01-30T02:21:59;10.70;99.90
12568;DHT22;6349;50.904;6.136;2024-01-30T02:24:00;10.70;99.90
12568;DHT22;6349;50.904;6.136;2024-01-30T02:26:01;10.70;99.90
12568;DHT22;6349;50.904;6.136;2024-01-30T02:28:02;10.70;99.90
12568;DHT22;6349;50.904;6.136;2024-01-30T02:30:03;10.70;99.90
12568;DHT22;6349;50.904;6.136;2024-01-30T02:32:04;10.70;99.90
12568;DHT22;6349;50.904;6.136;2024-01-30T02:34:04;10.70;99.90
12568;DHT22;6349;50.904;6.136;2024-01-30T02:36:05;10.70;99.90
12568;DHT22;6349;50.904;6.136;2024-01-30T02:38:05;10.70;99.90
12568;DHT22;6349;50.904;6.136;2024-01-30T02:40:06;10.70;99.90
12568;DHT22;6349;50.904;6.136;2024-01-30T02:42:07;10.70;99.90
12568;DHT22;6349;50.904;6.136;2024-01-30T02:44:08;10.70;99.90
12568;DHT22;6349;50.904;6.136;2024-01-30T02:46:08;10.80;99.90
12568;DHT22;6349;50.904;6.136;2024-01-30T02:48:09;10.70;99.90
12568;DHT22;6349;50.904;6.136;2024-01-30T02:50:09;10.70;99.90
12568;DHT22;6349;50.904;6.136;2024-01-30T02:52:10;10.70;99.90
12568;DHT22;6349;50.904;6.136;2024-01-30T02:54:11;10.70;99.90
12568;DHT22;6349;50.904;6.136;2024-01-30T02:56:11;10.60;99.90
12568;DHT22;6349;50.904;6.136;2024-01-30T02:58:13;10.60;99.90
12568;DHT22;6349;50.904;6.136;2024-01-30T03:00:14;10.60;99.90
12568;DHT22;6349;50.904;6.136;2024-01-30T03:02:15;10.70;99.90
12568;DHT22;6349;50.904;6.136;2024-01-30T03:04:15;10.70;99.90
12568;DHT22;6349;50.904;6.136;2024-01-30T03:06:16;10.70;99.90
12568;DHT22;6349;50.904;6.136;2024-01-30T03:08:17;10.60;99.90
12568;DHT22;6349;50.904;6.136;2024-01-30T03:10:18;10.60;99.90
12568;DHT22;6349;50.904;6.136;2024-01-30T03:12:19;10.50;99.90
12568;DHT22;6349;50.904;6.136;2024-01-30T03:14:19;10.50;99.90
12568;DHT22;6349;50.904;6.136;2024-01-30T03:16:20;10.50;99.90
12568;DHT22;6349;50.904;6.136;2024-01-30T03:18:20;10.50;99.90
12568;DHT22;6349;50.904;6.136;2024-01-30T03:20:21;10.40;99.90
12568;DHT22;6349;50.904;6.136;2024-01-30T03:22:22;10.40;99.90
12568;DHT22;6349;50.904;6.136;2024-01-30T03:24:23;10.40;99.90
12568;DHT22;6349;50.904;6.136;2024-01-30T03:26:23;10.30;99.90
12568;DHT22;6349;50.904;6.136;2024-01-30T03:28:24;10.40;99.90
12568;DHT22;6349;50.904;6.136;2024-01-30T03:30:24;10.30;99.90
12568;DHT22;6349;50.904;6.136;2024-01-30T03:32:25;10.40;99.90
12568;DHT22;6349;50.904;6.136;2024-01-30T03:34:25;10.30;99.90
12568;DHT22;6349;50.904;6.136;2024-01-30T03:36:26;10.40;99.90
12568;DHT22;6349;50.904;6.136;2024-01-30T03:38:26;10.40;99.90
12568;DHT22;6349;50.904;6.136;2024-01-30T03:40:27;10.40;99.90
12568;DHT22;6349;50.904;6.136;2024-01-30T03:42:27;10.50;99.90
12568;DHT22;6349;50.904;6.136;2024-01-30T03:44:28;10.50;99.90
12568;DHT22;6349;50.904;6.136;2024-01-30T03:46:28;10.50;99.90
12568;DHT22;6349;50.904;6.136;2024-01-30T03:48:29;10.50;99.90
12568;DHT22;6349;50.904;6.136;2024-01-30T03:50:30;10.50;99.90
12568;DHT22;6349;50.904;6.136;2024-01-30T03:52:30;10.50;99.90
12568;DHT22;6349;50.904;6.136;2024-01-30T03:54:31;10.50;99.90
12568;DHT22;6349;50.904;6.136;2024-01-30T03:56:32;10.50;99.90
12568;DHT22;6349;50.904;6.136;2024-01-30T03:58:32;10.50;99.90
12568;DHT22;6349;50.904;6.136;2024-01-30T04:00:33;10.50;99.90
12568;DHT22;6349;50.904;6.136;2024-01-30T04:02:33;10.60;99.90
12568;DHT22;6349;50.904;6.136;2024-01-30T04:04:34;10.60;99.90
12568;DHT22;6349;50.904;6.136;2024-01-30T04:06:35;10.60;99.90
12568;DHT22;6349;50.904;6.136;2024-01-30T04:08:37;10.60;99.90
12568;DHT22;6349;50.904;6.136;2024-01-30T04:10:38;10.60;99.90
12568;DHT22;6349;50.904;6.136;2024-01-30T04:12:38;10.60;99.90
12568;DHT22;6349;50.904;6.136;2024-01-30T04:14:39;10.60;99.90
12568;DHT22;6349;50.904;6.136;2024-01-30T04:16:40;10.60;99.90
12568;DHT22;6349;50.904;6.136;2024-01-30T04:18:40;10.60;99.90
12568;DHT22;6349;50.904;6.136;2024-01-30T04:20:41;10.60;99.90
12568;DHT22;6349;50.904;6.136;2024-01-30T04:22:45;10.60;99.90
12568;DHT22;6349;50.904;6.136;2024-01-30T04:24:46;10.60;99.90
12568;DHT22;6349;50.904;6.136;2024-01-30T04:26:46;10.60;99.90
12568;DHT22;6349;50.904;6.136;2024-01-30T04:28:47;10.60;99.90
12568;DHT22;6349;50.904;6.136;2024-01-30T04:30:47;10.60;99.90
12568;DHT22;6349;50.904;6.136;2024-01-30T04:32:48;10.60;99.90
12568;DHT22;6349;50.904;6.136;2024-01-30T04:34:49;10.60;99.90
12568;DHT22;6349;50.904;6.136;2024-01-30T04:36:50;10.70;99.90
12568;DHT22;6349;50.904;6.136;2024-01-30T04:38:50;10.70;99.90
12568;DHT22;6349;50.904;6.136;2024-01-30T04:40:51;10.70;99.90
12568;DHT22;6349;50.904;6.136;2024-01-30T04:42:51;10.80;99.90
12568;DHT22;6349;50.904;6.136;2024-01-30T04:44:52;10.80;99.90
12568;DHT22;6349;50.904;6.136;2024-01-30T04:46:52;10.80;99.90
12568;DHT22;6349;50.904;6.136;2024-01-30T04:48:53;10.80;99.90
12568;DHT22;6349;50.904;6.136;2024-01-30T04:50:53;10.80;99.90
12568;DHT22;6349;50.904;6.136;2024-01-30T04:52:54;10.80;99.90
12568;DHT22;6349;50.904;6.136;2024-01-30T04:54:55;10.70;99.90
12568;DHT22;6349;50.904;6.136;2024-01-30T04:56:55;10.70;99.90
12568;DHT22;6349;50.904;6.136;2024-01-30T04:58:56;10.70;99.90
12568;DHT22;6349;50.904;6.136;2024-01-30T05:00:56;10.70;99.90
12568;DHT22;6349;50.904;6.136;2024-01-30T05:02:57;10.70;99.90
12568;DHT22;6349;50.904;6.136;2024-01-30T05:04:57;10.70;99.90
12568;DHT22;6349;50.904;6.136;2024-01-30T05:06:58;10.70;99.90
12568;DHT22;6349;50.904;6.136;2024-01-30T05:08:59;10.80;99.90
12568;DHT22;6349;50.904;6.136;2024-01-30T05:11:03;10.70;99.90
12568;DHT22;6349;50.904;6.136;2024-01-30T05:13:06;10.80;99.90
12568;DHT22;6349;50.904;6.136;2024-01-30T05:15:07;10.80;99.90
12568;DHT22;6349;50.904;6.136;2024-01-30T05:17:08;10.80;99.90
12568;DHT22;6349;50.904;6.136;2024-01-30T05:19:10;10.80;99.90
12568;DHT22;6349;50.904;6.136;2024-01-30T05:21:11;10.90;99.90
12568;DHT22;6349;50.904;6.136;2024-01-30T05:23:11;10.90;99.90
12568;DHT22;6349;50.904;6.136;2024-01-30T05:25:13;10.90;99.90
12568;DHT22;6349;50.904;6.136;2024-01-30T05:27:13;10.90;99.90
12568;DHT22;6349;50.904;6.136;2024-01-30T05:29:14;10.80;99.90
12568;DHT22;6349;50.904;6.136;2024-01-30T05:31:15;10.80;99.90
12568;DHT22;6349;50.904;6.136;2024-01-30T05:33:15;10.80;99.90
12568;DHT22;6349;50.904;6.136;2024-01-30T05:35:16;10.80;99.90
12568;DHT22;6349;50.904;6.136;2024-01-30T05:37:16;10.80;99.90
12568;DHT22;6349;50.904;6.136;2024-01-30T05:39:18;10.80;99.90
12568;DHT22;6349;50.904;6.136;2024-01-30T05:41:19;10.80;99.90
12568;DHT22;6349;50.904;6.136;2024-01-30T05:43:21;10.80;99.90
12568;DHT22;6349;50.904;6.136;2024-01-30T05:45:21;10.80;99.90
12568;DHT22;6349;50.904;6.136;2024-01-30T05:47:23;10.80;99.90
12568;DHT22;6349;50.904;6.136;2024-01-30T05:49:24;10.80;99.90
12568;DHT22;6349;50.904;6.136;2024-01-30T05:51:24;10.80;99.90
12568;DHT22;6349;50.904;6.136;2024-01-30T05:53:25;10.90;99.90
12568;DHT22;6349;50.904;6.136;2024-01-30T05:55:25;10.90;99.90
12568;DHT22;6349;50.904;6.136;2024-01-30T05:57:26;10.90;99.90
12568;DHT22;6349;50.904;6.136;2024-01-30T05:59:26;10.90;99.90
12568;DHT22;6349;50.904;6.136;2024-01-30T06:01:27;10.80;99.90
12568;DHT22;6349;50.904;6.136;2024-01-30T06:03:29;10.80;99.90
12568;DHT22;6349;50.904;6.136;2024-01-30T06:05:29;10.80;99.90
12568;DHT22;6349;50.904;6.136;2024-01-30T06:07:30;10.80;99.90
12568;DHT22;6349;50.904;6.136;2024-01-30T06:09:31;10.80;99.90
12568;DHT22;6349;50.904;6.136;2024-01-30T06:11:32;10.80;99.90
12568;DHT22;6349;50.904;6.136;2024-01-30T06:13:32;10.90;99.90
12568;DHT22;6349;50.904;6.136;2024-01-30T06:15:33;10.90;99.90
12568;DHT22;6349;50.904;6.136;2024-01-30T06:17:34;10.90;99.90
12568;DHT22;6349;50.904;6.136;2024-01-30T06:19:34;11.00;99.90
12568;DHT22;6349;50.904;6.136;2024-01-30T06:21:35;11.00;99.90
12568;DHT22;6349;50.904;6.136;2024-01-30T06:23:37;11.00;99.90
12568;DHT22;6349;50.904;6.136;2024-01-30T06:25:37;11.00;99.90
12568;DHT22;6349;50.904;6.136;2024-01-30T06:27:38;11.00;99.90
12568;DHT22;6349;50.904;6.136;2024-01-30T06:29:39;11.00;99.90
12568;DHT22;6349;50.904;6.136;2024-01-30T06:31:43;11.10;99.90
12568;DHT22;6349;50.904;6.136;2024-01-30T06:33:46;11.10;99.90
12568;DHT22;6349;50.904;6.136;2024-01-30T06:35:46;11.10;99.90
12568;DHT22;6349;50.904;6.136;2024-01-30T06:37:47;11.10;99.90
12568;DHT22;6349;50.904;6.136;2024-01-30T06:39:47;11.10;99.90
12568;DHT22;6349;50.904;6.136;2024-01-30T06:41:48;11.10;99.90
12568;DHT22;6349;50.904;6.136;2024-01-30T06:43:49;11.10;99.90
12568;DHT22;6349;50.904;6.136;2024-01-30T06:45:50;11.10;99.90
12568;DHT22;6349;50.904;6.136;2024-01-30T06:47:52;11.10;99.90
12568;DHT22;6349;50.904;6.136;2024-01-30T06:49:52;11.10;99.90
12568;DHT22;6349;50.904;6.136;2024-01-30T06:51:53;11.10;99.90
12568;DHT22;6349;50.904;6.136;2024-01-30T06:53:53;11.00;99.90
12568;DHT22;6349;50.904;6.136;2024-01-30T06:55:54;11.00;99.90
12568;DHT22;6349;50.904;6.136;2024-01-30T06:57:54;11.00;99.90
12568;DHT22;6349;50.904;6.136;2024-01-30T06:59:55;11.00;99.90
12568;DHT22;6349;50.904;6.136;2024-01-30T07:01:55;10.90;99.90
12568;DHT22;6349;50.904;6.136;2024-01-30T07:03:57;10.90;99.90
12568;DHT22;6349;50.904;6.136;2024-01-30T07:05:58;11.00;99.90
12568;DHT22;6349;50.904;6.136;2024-01-30T07:07:58;11.00;99.90
12568;DHT22;6349;50.904;6.136;2024-01-30T07:09:59;11.00;99.90
12568;DHT22;6349;50.904;6.136;2024-01-30T07:12:00;11.00;99.90
12568;DHT22;6349;50.904;6.136;2024-01-30T07:14:00;11.00;99.90
12568;DHT22;6349;50.904;6.136;2024-01-30T07:16:04;11.00;99.90
12568;DHT22;6349;50.904;6.136;2024-01-30T07:18:05;11.00;99.90
12568;DHT22;6349;50.904;6.136;2024-01-30T07:20:06;11.00;99.90
12568;DHT22;6349;50.904;6.136;2024-01-30T07:22:08;11.00;99.90
12568;DHT22;6349;50.904;6.136;2024-01-30T07:24:08;11.00;99.90
12568;DHT22;6349;50.904;6.136;2024-01-30T07:26:09;10.90;99.90
12568;DHT22;6349;50.904;6.136;2024-01-30T07:28:10;10.90;99.90
12568;DHT22;6349;50.904;6.136;2024-01-30T07:30:11;10.90;99.90
12568;DHT22;6349;50.904;6.136;2024-01-30T07:32:11;11.00;99.90
12568;DHT22;6349;50.904;6.136;2024-01-30T07:34:12;11.00;99.90
12568;DHT22;6349;50.904;6.136;2024-01-30T07:36:13;11.00;99.90
12568;DHT22;6349;50.904;6.136;2024-01-30T07:38:13;11.00;99.90
12568;DHT22;6349;50.904;6.136;2024-01-30T07:40:14;11.00;99.90
12568;DHT22;6349;50.904;6.136;2024-01-30T07:42:15;11.00;99.90
12568;DHT22;6349;50.904;6.136;2024-01-30T07:44:16;11.00;99.90
12568;DHT22;6349;50.904;6.136;2024-01-30T07:46:17;11.00;99.90
12568;DHT22;6349;50.904;6.136;2024-01-30T07:48:18;11.10;99.90
12568;DHT22;6349;50.904;6.136;2024-01-30T07:50:18;11.10;99.90
12568;DHT22;6349;50.904;6.136;2024-01-30T07:52:19;11.10;99.90
12568;DHT22;6349;50.904;6.136;2024-01-30T07:54:19;11.20;99.90
12568;DHT22;6349;50.904;6.136;2024-01-30T07:56:20;11.20;99.90
12568;DHT22;6349;50.904;6.136;2024-01-30T07:58:21;11.20;99.90
12568;DHT22;6349;50.904;6.136;2024-01-30T08:00:22;11.20;99.90
12568;DHT22;6349;50.904;6.136;2024-01-30T08:02:22;11.20;99.90
12568;DHT22;6349;50.904;6.136;2024-01-30T08:04:23;11.10;99.90
12568;DHT22;6349;50.904;6.136;2024-01-30T08:06:23;11.20;99.90
12568;DHT22;6349;50.904;6.136;2024-01-30T08:08:24;11.20;99.90
12568;DHT22;6349;50.904;6.136;2024-01-30T08:10:25;11.20;99.90
12568;DHT22;6349;50.904;6.136;2024-01-30T08:12:26;11.10;99.90
12568;DHT22;6349;50.904;6.136;2024-01-30T08:14:27;11.10;99.90
12568;DHT22;6349;50.904;6.136;2024-01-30T08:16:28;11.10;99.90
12568;DHT22;6349;50.904;6.136;2024-01-30T08:18:28;11.20;99.90
12568;DHT22;6349;50.904;6.136;2024-01-30T08:20:29;11.20;99.90
12568;DHT22;6349;50.904;6.136;2024-01-30T08:22:30;11.20;99.90
12568;DHT22;6349;50.904;6.136;2024-01-30T08:24:31;11.10;99.90
12568;DHT22;6349;50.904;6.136;2024-01-30T08:26:32;11.10;99.90
12568;DHT22;6349;50.904;6.136;2024-01-30T08:28:32;11.10;99.90
12568;DHT22;6349;50.904;6.136;2024-01-30T08:30:33;11.10;99.90
12568;DHT22;6349;50.904;6.136;2024-01-30T08:32:34;11.00;99.90
12568;DHT22;6349;50.904;6.136;2024-01-30T08:34:34;11.00;99.90
12568;DHT22;6349;50.904;6.136;2024-01-30T08:36:35;11.00;99.90
12568;DHT22;6349;50.904;6.136;2024-01-30T08:38:36;10.90;99.90
12568;DHT22;6349;50.904;6.136;2024-01-30T08:40:37;10.90;99.90
12568;DHT22;6349;50.904;6.136;2024-01-30T08:42:37;10.90;99.90
12568;DHT22;6349;50.904;6.136;2024-01-30T08:44:38;10.90;99.90
12568;DHT22;6349;50.904;6.136;2024-01-30T08:46:39;10.90;99.90
12568;DHT22;6349;50.904;6.136;2024-01-30T08:48:40;11.00;99.90
12568;DHT22;6349;50.904;6.136;2024-01-30T08:50:41;10.90;99.90
12568;DHT22;6349;50.904;6.136;2024-01-30T08:52:42;10.90;99.90
12568;DHT22;6349;50.904;6.136;2024-01-30T08:54:42;10.90;99.90
12568;DHT22;6349;50.904;6.136;2024-01-30T08:56:43;10.90;99.90
12568;DHT22;6349;50.904;6.136;2024-01-30T08:58:44;11.00;99.90
12568;DHT22;6349;50.904;6.136;2024-01-30T09:00:44;11.00;99.90
12568;DHT22;6349;50.904;6.136;2024-01-30T09:02:45;11.00;99.90
12568;DHT22;6349;50.904;6.136;2024-01-30T09:04:45;11.00;99.90
12568;DHT22;6349;50.904;6.136;2024-01-30T09:06:46;11.00;99.90
12568;DHT22;6349;50.904;6.136;2024-01-30T09:08:46;11.00;99.90
12568;DHT22;6349;50.904;6.136;2024-01-30T09:10:47;11.10;99.90
12568;DHT22;6349;50.904;6.136;2024-01-30T09:12:48;11.10;99.90
12568;DHT22;6349;50.904;6.136;2024-01-30T09:14:49;11.20;99.90
12568;DHT22;6349;50.904;6.136;2024-01-30T09:16:50;11.10;99.90
12568;DHT22;6349;50.904;6.136;2024-01-30T09:18:51;11.20;99.90
12568;DHT22;6349;50.904;6.136;2024-01-30T09:20:51;11.20;99.90
12568;DHT22;6349;50.904;6.136;2024-01-30T09:22:52;11.30;99.90
12568;DHT22;6349;50.904;6.136;2024-01-30T09:24:52;11.30;99.90
12568;DHT22;6349;50.904;6.136;2024-01-30T09:26:53;11.40;99.90
12568;DHT22;6349;50.904;6.136;2024-01-30T09:28:54;11.40;99.90
12568;DHT22;6349;50.904;6.136;2024-01-30T09:30:54;11.40;99.90
12568;DHT22;6349;50.904;6.136;2024-01-30T09:32:55;11.40;99.90
12568;DHT22;6349;50.904;6.136;2024-01-30T09:34:55;11.50;99.90
12568;DHT22;6349;50.904;6.136;2024-01-30T09:36:56;11.50;99.90
12568;DHT22;6349;50.904;6.136;2024-01-30T09:38:56;11.50;99.90
12568;DHT22;6349;50.904;6.136;2024-01-30T09:41:02;11.50;99.90
12568;DHT22;6349;50.904;6.136;2024-01-30T09:43:04;11.50;99.90
12568;DHT22;6349;50.904;6.136;2024-01-30T09:45:05;11.50;99.90
12568;DHT22;6349;50.904;6.136;2024-01-30T09:47:06;11.50;99.90
12568;DHT22;6349;50.904;6.136;2024-01-30T09:49:08;11.50;99.90
12568;DHT22;6349;50.904;6.136;2024-01-30T09:51:09;11.50;99.90
12568;DHT22;6349;50.904;6.136;2024-01-30T09:53:11;11.50;99.90
12568;DHT22;6349;50.904;6.136;2024-01-30T09:55:13;11.50;99.90
12568;DHT22;6349;50.904;6.136;2024-01-30T09:57:14;11.50;99.90
12568;DHT22;6349;50.904;6.136;2024-01-30T09:59:15;11.50;99.90
12568;DHT22;6349;50.904;6.136;2024-01-30T10:01:17;11.50;99.90
12568;DHT22;6349;50.904;6.136;2024-01-30T10:03:19;11.60;99.90
12568;DHT22;6349;50.904;6.136;2024-01-30T10:05:20;11.50;99.90
12568;DHT22;6349;50.904;6.136;2024-01-30T10:07:21;11.60;99.90
12568;DHT22;6349;50.904;6.136;2024-01-30T10:09:21;11.60;99.90
12568;DHT22;6349;50.904;6.136;2024-01-30T10:11:22;11.60;99.90
12568;DHT22;6349;50.904;6.136;2024-01-30T10:13:23;11.60;99.90
12568;DHT22;6349;50.904;6.136;2024-01-30T10:15:24;11.60;99.90
12568;DHT22;6349;50.904;6.136;2024-01-30T10:17:26;11.60;99.90
12568;DHT22;6349;50.904;6.136;2024-01-30T10:19:27;11.60;99.90
12568;DHT22;6349;50.904;6.136;2024-01-30T10:21:29;11.60;99.90
12568;DHT22;6349;50.904;6.136;2024-01-30T10:23:30;11.60;99.90
12568;DHT22;6349;50.904;6.136;2024-01-30T10:25:31;11.60;99.90
12568;DHT22;6349;50.904;6.136;2024-01-30T10:27:32;11.60;99.90
12568;DHT22;6349;50.904;6.136;2024-01-30T10:29:32;11.60;99.90
12568;DHT22;6349;50.904;6.136;2024-01-30T10:31:33;11.60;99.90
12568;DHT22;6349;50.904;6.136;2024-01-30T10:33:34;11.70;99.90
12568;DHT22;6349;50.904;6.136;2024-01-30T10:35:34;11.70;99.90
12568;DHT22;6349;50.904;6.136;2024-01-30T10:37:35;11.70;99.90
12568;DHT22;6349;50.904;6.136;2024-01-30T10:39:41;11.70;99.90
12568;DHT22;6349;50.904;6.136;2024-01-30T10:41:44;11.70;99.90
12568;DHT22;6349;50.904;6.136;2024-01-30T10:44:00;11.70;99.90
12568;DHT22;6349;50.904;6.136;2024-01-30T10:46:16;11.70;99.90
12568;DHT22;6349;50.904;6.136;2024-01-30T10:48:19;11.80;99.90
12568;DHT22;6349;50.904;6.136;2024-01-30T10:50:24;11.70;99.90
12568;DHT22;6349;50.904;6.136;2024-01-30T10:52:25;11.80;99.90
12568;DHT22;6349;50.904;6.136;2024-01-30T10:54:26;11.80;99.90
12568;DHT22;6349;50.904;6.136;2024-01-30T10:56:28;11.80;99.90
12568;DHT22;6349;50.904;6.136;2024-01-30T10:58:29;11.80;99.90
12568;DHT22;6349;50.904;6.136;2024-01-30T11:00:30;11.90;99.90
12568;DHT22;6349;50.904;6.136;2024-01-30T11:02:33;11.90;99.90
12568;DHT22;6349;50.904;6.136;2024-01-30T11:04:37;11.90;99.90
12568;DHT22;6349;50.904;6.136;2024-01-30T11:06:41;11.90;99.90
12568;DHT22;6349;50.904;6.136;2024-01-30T11:08:43;11.90;99.90
12568;DHT22;6349;50.904;6.136;2024-01-30T11:10:47;11.90;99.90
12568;DHT22;6349;50.904;6.136;2024-01-30T11:12:48;11.90;99.90
12568;DHT22;6349;50.904;6.136;2024-01-30T11:15:08;11.90;99.90
12568;DHT22;6349;50.904;6.136;2024-01-30T11:17:10;11.90;99.90
12568;DHT22;6349;50.904;6.136;2024-01-30T11:19:12;11.90;99.90
12568;DHT22;6349;50.904;6.136;2024-01-30T11:21:13;11.90;99.90
12568;DHT22;6349;50.904;6.136;2024-01-30T11:23:14;11.90;99.90
12568;DHT22;6349;50.904;6.136;2024-01-30T11:25:16;11.80;99.90
12568;DHT22;6349;50.904;6.136;2024-01-30T11:27:17;11.80;99.90
12568;DHT22;6349;50.904;6.136;2024-01-30T11:29:17;11.80;99.90
12568;DHT22;6349;50.904;6.136;2024-01-30T11:31:19;11.80;99.90
12568;DHT22;6349;50.904;6.136;2024-01-30T11:33:29;11.70;99.90
12568;DHT22;6349;50.904;6.136;2024-01-30T11:35:34;11.70;99.90
12568;DHT22;6349;50.904;6.136;2024-01-30T11:37:36;11.70;99.90
12568;DHT22;6349;50.904;6.136;2024-01-30T11:39:39;11.70;99.90
12568;DHT22;6349;50.904;6.136;2024-01-30T11:41:42;11.70;99.90
12568;DHT22;6349;50.904;6.136;2024-01-30T11:43:51;11.70;99.90
12568;DHT22;6349;50.904;6.136;2024-01-30T11:45:52;11.70;99.90
12568;DHT22;6349;50.904;6.136;2024-01-30T11:47:53;11.70;99.90
12568;DHT22;6349;50.904;6.136;2024-01-30T11:49:54;11.70;99.90
12568;DHT22;6349;50.904;6.136;2024-01-30T11:51:54;11.70;99.90
12568;DHT22;6349;50.904;6.136;2024-01-30T11:53:55;11.70;99.90
12568;DHT22;6349;50.904;6.136;2024-01-30T11:55:56;11.60;99.90
12568;DHT22;6349;50.904;6.136;2024-01-30T11:57:59;11.70;99.90
12568;DHT22;6349;50.904;6.136;2024-01-30T12:00:00;11.70;99.90
12568;DHT22;6349;50.904;6.136;2024-01-30T12:02:01;11.70;99.90
12568;DHT22;6349;50.904;6.136;2024-01-30T12:04:02;11.70;99.90
12568;DHT22;6349;50.904;6.136;2024-01-30T12:06:03;11.70;99.90
12568;DHT22;6349;50.904;6.136;2024-01-30T12:08:04;11.70;99.90
12568;DHT22;6349;50.904;6.136;2024-01-30T12:10:05;11.70;99.90
12568;DHT22;6349;50.904;6.136;2024-01-30T12:12:07;11.70;99.90
12568;DHT22;6349;50.904;6.136;2024-01-30T12:14:12;11.80;99.90
12568;DHT22;6349;50.904;6.136;2024-01-30T12:16:13;11.80;99.90
12568;DHT22;6349;50.904;6.136;2024-01-30T12:18:14;11.80;99.90
12568;DHT22;6349;50.904;6.136;2024-01-30T12:20:18;11.80;99.90
12568;DHT22;6349;50.904;6.136;2024-01-30T12:22:19;11.80;99.90
12568;DHT22;6349;50.904;6.136;2024-01-30T12:24:20;11.80;99.90
12568;DHT22;6349;50.904;6.136;2024-01-30T12:26:20;11.80;99.90
12568;DHT22;6349;50.904;6.136;2024-01-30T12:28:21;11.70;99.90
12568;DHT22;6349;50.904;6.136;2024-01-30T12:30:22;11.80;99.90
12568;DHT22;6349;50.904;6.136;2024-01-30T12:32:23;11.70;99.90
12568;DHT22;6349;50.904;6.136;2024-01-30T12:34:24;11.70;99.90
12568;DHT22;6349;50.904;6.136;2024-01-30T12:36:25;11.70;99.90
12568;DHT22;6349;50.904;6.136;2024-01-30T12:38:26;11.70;99.90
12568;DHT22;6349;50.904;6.136;2024-01-30T12:40:27;11.70;99.90
12568;DHT22;6349;50.904;6.136;2024-01-30T12:42:28;11.70;99.90
12568;DHT22;6349;50.904;6.136;2024-01-30T12:44:28;11.70;99.90
12568;DHT22;6349;50.904;6.136;2024-01-30T12:46:29;11.60;99.90
12568;DHT22;6349;50.904;6.136;2024-01-30T12:48:30;11.60;99.90
12568;DHT22;6349;50.904;6.136;2024-01-30T12:50:30;11.60;99.90
12568;DHT22;6349;50.904;6.136;2024-01-30T12:52:31;11.60;99.90
12568;DHT22;6349;50.904;6.136;2024-01-30T12:54:31;11.50;99.90
12568;DHT22;6349;50.904;6.136;2024-01-30T12:56:32;11.50;99.90